createdAt,value
2019-02-18T00:00:19.188Z,62.19
2019-02-18T00:01:19.351Z,63.92
2019-02-18T00:02:19.167Z,62.71
2019-02-18T00:03:19.175Z,63.43
2019-02-18T00:04:19.345Z,63.64
2019-02-18T00:05:19.154Z,62.81
2019-02-18T00:06:19.124Z,62.60
2019-02-18T00:07:19.166Z,62.84
2019-02-18T00:08:19.106Z,63.84
2019-02-18T00:09:19.113Z,62.92
2019-02-18T00:10:19.082Z,62.19
2019-02-18T00:11:19.063Z,62.29
2019-02-18T00:12:19.063Z,62.19
2019-02-18T00:13:19.042Z,61.68
2019-02-18T00:14:19.060Z,61.68
2019-02-18T00:15:19.032Z,62.81
2019-02-18T00:16:19.016Z,62.60
2019-02-18T00:17:19.007Z,62.71
2019-02-18T00:18:18.982Z,62.19
2019-02-18T00:19:18.975Z,61.57
2019-02-18T00:20:19.155Z,61.78
2019-02-18T00:21:18.969Z,61.75
2019-02-18T00:22:18.944Z,61.85
2019-02-18T00:23:19.051Z,61.78
2019-02-18T00:24:18.932Z,61.54
2019-02-18T00:25:18.914Z,61.54
2019-02-18T00:26:18.944Z,61.65
2019-02-18T00:27:18.896Z,61.96
2019-02-18T00:28:18.898Z,60.82
2019-02-18T00:29:18.872Z,61.78
2019-02-18T00:30:18.878Z,62.16
2019-02-18T00:31:18.914Z,62.16
2019-02-18T00:32:18.865Z,62.26
2019-02-18T00:33:18.825Z,61.75
2019-02-18T00:34:18.858Z,61.75
2019-02-18T00:35:18.799Z,61.65
2019-02-18T00:36:18.805Z,61.96
2019-02-18T00:37:24.546Z,61.65
2019-02-18T00:38:19.788Z,61.85
2019-02-18T00:39:18.742Z,61.65
2019-02-18T00:40:18.742Z,62.16
2019-02-18T00:41:18.743Z,62.26
2019-02-18T00:42:18.752Z,61.75
2019-02-18T00:43:18.733Z,61.65
2019-02-18T00:44:18.700Z,62.26
2019-02-18T00:45:18.689Z,61.75
2019-02-18T00:46:18.668Z,62.06
2019-02-18T00:47:18.732Z,61.72
2019-02-18T00:48:18.659Z,61.65
2019-02-18T00:49:18.664Z,62.06
2019-02-18T00:50:18.682Z,62.06
2019-02-18T00:51:18.618Z,61.85
2019-02-18T00:52:18.603Z,62.06
2019-02-18T00:53:18.627Z,61.96
2019-02-18T00:54:18.593Z,62.68
2019-02-18T00:55:18.569Z,62.71
2019-02-18T00:56:18.555Z,62.60
2019-02-18T00:57:18.547Z,62.60
2019-02-18T00:58:18.538Z,63.74
2019-02-18T00:59:18.549Z,63.15
2019-02-18T01:00:18.535Z,63.67
2019-02-18T01:01:18.499Z,63.87
2019-02-18T01:02:18.497Z,63.97
2019-02-18T01:03:18.528Z,64.28
2019-02-18T01:04:18.541Z,64.70
2019-02-18T01:05:18.476Z,64.93
2019-02-18T01:06:18.446Z,65.03
2019-02-18T01:07:18.434Z,65.45
2019-02-18T01:08:18.429Z,65.24
2019-02-18T01:09:18.408Z,65.76
2019-02-18T01:10:18.430Z,65.58
2019-02-18T01:11:18.413Z,65.79
2019-02-18T01:12:18.413Z,66.10
2019-02-18T01:13:18.400Z,65.17
2019-02-18T01:14:18.364Z,66.00
2019-02-18T01:15:18.352Z,66.51
2019-02-18T01:16:18.328Z,66.72
2019-02-18T01:17:18.485Z,66.85
2019-02-18T01:18:18.304Z,67.27
2019-02-18T01:19:18.324Z,67.37
2019-02-18T01:20:18.368Z,67.47
2019-02-18T01:21:18.282Z,67.27
2019-02-18T01:22:18.269Z,67.30
2019-02-18T01:23:18.331Z,67.82
2019-02-18T01:24:18.267Z,68.23
2019-02-18T01:25:18.234Z,67.50
2019-02-18T01:26:18.217Z,68.12
2019-02-18T01:27:18.228Z,67.71
2019-02-18T01:28:18.197Z,68.43
2019-02-18T01:29:18.225Z,68.23
2019-02-18T01:30:18.182Z,68.33
2019-02-18T01:31:18.157Z,68.26
2019-02-18T01:32:18.153Z,68.36
2019-02-18T01:33:18.145Z,68.46
2019-02-18T01:34:18.127Z,69.09
2019-02-18T01:35:18.195Z,70.01
2019-02-18T01:36:18.122Z,69.92
2019-02-18T01:37:18.095Z,69.71
2019-02-18T01:38:18.092Z,69.43
2019-02-18T01:39:18.207Z,69.09
2019-02-18T01:40:18.082Z,69.43
2019-02-18T01:41:18.055Z,69.60
2019-02-18T01:42:18.093Z,70.05
2019-02-18T01:43:18.045Z,69.53
2019-02-18T01:44:18.026Z,70.26
2019-02-18T01:45:18.032Z,70.26
2019-02-18T01:46:18.002Z,69.64
2019-02-18T01:47:18.060Z,69.74
2019-02-18T01:48:17.976Z,69.95
2019-02-18T01:49:17.963Z,69.43
2019-02-18T01:50:18.065Z,70.47
2019-02-18T01:51:18.856Z,69.95
2019-02-18T01:52:17.934Z,70.08
2019-02-18T01:53:17.931Z,70.60
2019-02-18T01:54:17.907Z,70.81
2019-02-18T01:55:17.924Z,70.70
2019-02-18T01:56:17.891Z,70.39
2019-02-18T01:57:17.905Z,70.70
2019-02-18T01:58:17.866Z,71.53
2019-02-18T01:59:17.865Z,71.73
2019-02-18T02:00:17.849Z,71.63
2019-02-18T02:01:17.836Z,70.81
2019-02-18T02:02:17.881Z,71.01
2019-02-18T02:03:17.863Z,71.73
2019-02-18T02:04:17.807Z,71.88
2019-02-18T02:05:17.785Z,71.88
2019-02-18T02:06:17.806Z,72.08
2019-02-18T02:07:18.361Z,71.67
2019-02-18T02:08:17.802Z,71.25
2019-02-18T02:09:17.770Z,71.56
2019-02-18T02:10:17.750Z,72.19
2019-02-18T02:11:17.726Z,72.11
2019-02-18T02:12:17.743Z,72.39
2019-02-18T02:13:17.702Z,73.36
2019-02-18T02:14:17.691Z,73.15
2019-02-18T02:15:17.709Z,73.36
2019-02-18T02:16:17.675Z,73.25
2019-02-18T02:17:17.665Z,72.94
2019-02-18T02:18:17.656Z,73.77
2019-02-18T02:19:17.666Z,73.60
2019-02-18T02:20:17.622Z,73.60
2019-02-18T02:21:17.612Z,73.80
2019-02-18T02:22:17.786Z,73.60
2019-02-18T02:23:17.590Z,73.57
2019-02-18T02:24:17.601Z,73.60
2019-02-18T02:25:17.580Z,73.49
2019-02-18T02:26:17.564Z,73.49
2019-02-18T02:27:17.541Z,73.84
2019-02-18T02:28:17.624Z,73.70
2019-02-18T02:29:17.562Z,73.39
2019-02-18T02:30:17.729Z,73.60
2019-02-18T02:31:17.537Z,73.70
2019-02-18T02:32:17.522Z,73.84
2019-02-18T02:33:17.567Z,73.70
2019-02-18T02:34:17.468Z,73.74
2019-02-18T02:35:17.467Z,74.05
2019-02-18T02:36:17.502Z,74.36
2019-02-18T02:37:17.461Z,74.36
2019-02-18T02:38:17.433Z,74.88
2019-02-18T02:39:17.413Z,74.98
2019-02-18T02:40:17.402Z,74.88
2019-02-18T02:41:18.364Z,74.77
2019-02-18T02:42:17.374Z,74.67
2019-02-18T02:43:17.370Z,74.67
2019-02-18T02:44:17.363Z,75.12
2019-02-18T02:45:17.353Z,75.60
2019-02-18T02:46:17.355Z,75.29
2019-02-18T02:47:17.351Z,75.29
2019-02-18T02:48:17.311Z,75.40
2019-02-18T02:49:17.304Z,75.40
2019-02-18T02:50:17.291Z,75.60
2019-02-18T02:51:17.283Z,75.33
2019-02-18T02:52:17.370Z,75.43
2019-02-18T02:53:17.254Z,76.16
2019-02-18T02:54:17.246Z,75.74
2019-02-18T02:55:17.311Z,75.64
2019-02-18T02:56:17.239Z,75.36
2019-02-18T02:57:17.260Z,75.95
2019-02-18T02:58:17.197Z,75.54
2019-02-18T02:59:17.209Z,76.06
2019-02-18T03:00:17.183Z,75.64
2019-02-18T03:01:17.171Z,76.16
2019-02-18T03:02:17.158Z,75.54
2019-02-18T03:03:17.200Z,76.40
2019-02-18T03:04:17.134Z,75.64
2019-02-18T03:05:17.127Z,75.98
2019-02-18T03:06:17.111Z,76.40
2019-02-18T03:07:17.113Z,76.09
2019-02-18T03:08:20.348Z,76.09
2019-02-18T03:09:17.104Z,76.16
2019-02-18T03:10:17.069Z,76.26
2019-02-18T03:11:17.067Z,76.09
2019-02-18T03:12:17.077Z,76.29
2019-02-18T03:13:17.030Z,76.19
2019-02-18T03:14:17.023Z,76.29
2019-02-18T03:15:17.047Z,76.40
2019-02-18T03:16:17.006Z,76.81
2019-02-18T03:17:16.993Z,76.71
2019-02-18T03:18:17.007Z,76.40
2019-02-18T03:19:17.144Z,76.92
2019-02-18T03:20:16.954Z,76.71
2019-02-18T03:21:16.977Z,76.50
2019-02-18T03:22:17.002Z,77.23
2019-02-18T03:23:16.927Z,77.12
2019-02-18T03:24:16.919Z,77.12
2019-02-18T03:25:16.955Z,77.02
2019-02-18T03:26:16.915Z,76.81
2019-02-18T03:27:16.875Z,77.12
2019-02-18T03:28:16.914Z,76.71
2019-02-18T03:29:16.855Z,77.33
2019-02-18T03:30:16.868Z,76.50
2019-02-18T03:31:16.837Z,77.16
2019-02-18T03:32:16.846Z,77.02
2019-02-18T03:33:16.830Z,76.81
2019-02-18T03:34:16.816Z,77.12
2019-02-18T03:35:16.800Z,76.50
2019-02-18T03:36:16.785Z,77.02
2019-02-18T03:37:16.798Z,77.12
2019-02-18T03:38:16.901Z,77.02
2019-02-18T03:39:16.747Z,77.12
2019-02-18T03:40:16.736Z,77.12
2019-02-18T03:41:16.724Z,76.92
2019-02-18T03:42:16.716Z,76.81
2019-02-18T03:43:16.745Z,76.61
2019-02-18T03:44:16.735Z,76.61
2019-02-18T03:45:16.701Z,76.40
2019-02-18T03:46:17.381Z,76.92
2019-02-18T03:47:16.672Z,76.40
2019-02-18T03:48:16.665Z,76.81
2019-02-18T03:49:16.771Z,76.09
2019-02-18T03:50:16.625Z,76.09
2019-02-18T03:51:16.654Z,76.29
2019-02-18T03:52:16.612Z,75.88
2019-02-18T03:53:16.600Z,76.12
2019-02-18T03:54:16.616Z,76.23
2019-02-18T03:55:16.583Z,76.12
2019-02-18T03:56:16.597Z,76.33
2019-02-18T03:57:16.548Z,76.12
2019-02-18T03:58:16.541Z,76.33
2019-02-18T03:59:16.528Z,76.23
2019-02-18T04:00:16.527Z,76.75
2019-02-18T04:01:16.520Z,76.64
2019-02-18T04:02:16.517Z,76.85
2019-02-18T04:03:16.486Z,76.64
2019-02-18T04:04:16.478Z,76.95
2019-02-18T04:05:16.559Z,76.64
2019-02-18T04:06:16.470Z,76.85
2019-02-18T04:07:16.467Z,76.54
2019-02-18T04:08:16.485Z,77.20
2019-02-18T04:09:16.431Z,77.16
2019-02-18T04:10:16.405Z,77.61
2019-02-18T04:11:16.406Z,77.37
2019-02-18T04:12:16.406Z,77.72
2019-02-18T04:13:16.406Z,77.20
2019-02-18T04:14:16.367Z,77.72
2019-02-18T04:15:16.350Z,77.06
2019-02-18T04:16:16.381Z,77.20
2019-02-18T04:17:16.353Z,77.61
2019-02-18T04:18:16.331Z,77.47
2019-02-18T04:19:16.303Z,77.72
2019-02-18T04:20:16.302Z,77.40
2019-02-18T04:21:16.291Z,77.72
2019-02-18T04:22:16.277Z,77.20
2019-02-18T04:23:16.296Z,77.09
2019-02-18T04:24:16.263Z,77.72
2019-02-18T04:25:16.238Z,77.20
2019-02-18T04:26:16.233Z,76.89
2019-02-18T04:27:16.220Z,77.40
2019-02-18T04:28:16.210Z,77.20
2019-02-18T04:29:16.221Z,77.20
2019-02-18T04:30:18.953Z,77.20
2019-02-18T04:31:16.408Z,76.78
2019-02-18T04:32:16.352Z,76.99
2019-02-18T04:33:16.177Z,77.20
2019-02-18T04:34:16.166Z,77.09
2019-02-18T04:35:16.290Z,77.20
2019-02-18T04:36:16.143Z,77.09
2019-02-18T04:37:16.112Z,77.20
2019-02-18T04:38:16.107Z,77.20
2019-02-18T04:39:16.112Z,77.20
2019-02-18T04:40:16.079Z,77.20
2019-02-18T04:41:16.065Z,77.16
2019-02-18T04:42:16.072Z,77.16
2019-02-18T04:43:16.041Z,77.20
2019-02-18T04:44:16.035Z,77.20
2019-02-18T04:45:16.017Z,76.47
2019-02-18T04:46:16.034Z,76.89
2019-02-18T04:47:16.007Z,76.57
2019-02-18T04:48:16.008Z,77.40
2019-02-18T04:49:15.990Z,76.57
2019-02-18T04:50:16.023Z,76.99
2019-02-18T04:51:16.080Z,77.20
2019-02-18T04:52:15.968Z,77.20
2019-02-18T04:53:15.928Z,77.20
2019-02-18T04:54:15.917Z,76.99
2019-02-18T04:55:15.912Z,77.09
2019-02-18T04:56:15.918Z,77.16
2019-02-18T04:57:15.888Z,77.20
2019-02-18T04:58:15.907Z,77.20
2019-02-18T04:59:15.887Z,77.09
2019-02-18T05:00:15.861Z,76.89
2019-02-18T05:01:15.876Z,76.47
2019-02-18T05:02:15.838Z,76.57
2019-02-18T05:03:15.841Z,76.89
2019-02-18T05:04:15.810Z,76.57
2019-02-18T05:05:15.852Z,76.78
2019-02-18T05:06:15.790Z,77.20
2019-02-18T05:07:15.844Z,76.99
2019-02-18T05:08:15.767Z,77.40
2019-02-18T05:09:15.772Z,77.40
2019-02-18T05:10:15.809Z,77.51
2019-02-18T05:11:15.737Z,77.65
2019-02-18T05:12:15.729Z,77.20
2019-02-18T05:13:15.734Z,77.51
2019-02-18T05:14:15.702Z,77.40
2019-02-18T05:15:15.738Z,77.65
2019-02-18T05:16:15.677Z,77.72
2019-02-18T05:17:15.661Z,77.75
2019-02-18T05:18:15.772Z,77.96
2019-02-18T05:19:15.668Z,77.65
2019-02-18T05:20:15.671Z,77.75
2019-02-18T05:21:15.752Z,77.75
2019-02-18T05:22:15.608Z,77.75
2019-02-18T05:23:15.611Z,77.92
2019-02-18T05:24:15.718Z,77.75
2019-02-18T05:25:15.582Z,78.38
2019-02-18T05:26:15.584Z,77.86
2019-02-18T05:27:15.550Z,77.72
2019-02-18T05:28:15.612Z,77.96
2019-02-18T05:29:15.542Z,77.96
2019-02-18T05:30:15.545Z,77.96
2019-02-18T05:31:15.530Z,78.44
2019-02-18T05:32:15.496Z,78.13
2019-02-18T05:33:15.520Z,78.38
2019-02-18T05:34:15.478Z,78.17
2019-02-18T05:35:15.525Z,78.38
2019-02-18T05:36:15.455Z,78.48
2019-02-18T05:37:15.449Z,78.38
2019-02-18T05:38:15.463Z,78.38
2019-02-18T05:39:18.410Z,78.58
2019-02-18T05:40:15.466Z,78.48
2019-02-18T05:41:15.409Z,78.13
2019-02-18T05:42:15.390Z,78.38
2019-02-18T05:43:15.383Z,78.34
2019-02-18T05:44:15.400Z,77.82
2019-02-18T05:45:16.398Z,77.92
2019-02-18T05:46:15.349Z,78.13
2019-02-18T05:47:15.356Z,77.61
2019-02-18T05:48:15.410Z,77.30
2019-02-18T05:49:15.309Z,78.75
2019-02-18T05:50:15.350Z,79.38
2019-02-18T05:51:15.366Z,79.90
2019-02-18T05:52:15.337Z,79.90
2019-02-18T05:53:15.317Z,79.24
2019-02-18T05:54:15.258Z,79.06
2019-02-18T05:55:15.297Z,78.20
2019-02-18T05:56:15.282Z,78.09
2019-02-18T05:57:15.249Z,77.16
2019-02-18T05:58:15.237Z,77.16
2019-02-18T05:59:15.339Z,77.26
2019-02-18T06:00:15.196Z,77.16
2019-02-18T06:01:15.195Z,76.95
2019-02-18T06:02:15.198Z,76.43
2019-02-18T06:03:15.174Z,77.16
2019-02-18T06:04:15.302Z,76.75
2019-02-18T06:05:15.188Z,77.16
2019-02-18T06:06:15.149Z,77.06
2019-02-18T06:07:15.202Z,77.16
2019-02-18T06:08:15.174Z,76.95
2019-02-18T06:09:15.222Z,77.16
2019-02-18T06:10:17.169Z,76.75
2019-02-18T06:11:15.115Z,76.43
2019-02-18T06:12:15.059Z,76.85
2019-02-18T06:13:15.053Z,77.06
2019-02-18T06:14:15.044Z,76.75
2019-02-18T06:15:15.084Z,77.16
2019-02-18T06:16:15.072Z,76.95
2019-02-18T06:17:15.037Z,76.43
2019-02-18T06:18:15.025Z,76.43
2019-02-18T06:19:14.984Z,76.33
2019-02-18T06:20:15.036Z,76.02
2019-02-18T06:21:14.967Z,76.02
2019-02-18T06:22:14.961Z,76.64
2019-02-18T06:23:14.953Z,77.68
2019-02-18T06:24:14.930Z,78.41
2019-02-18T06:25:14.976Z,78.20
2019-02-18T06:26:14.910Z,79.86
2019-02-18T06:27:14.918Z,80.07
2019-02-18T06:28:14.973Z,81.73
2019-02-18T06:29:14.875Z,81.70
2019-02-18T06:30:14.907Z,80.55
2019-02-18T06:31:14.924Z,78.58
2019-02-18T06:32:14.842Z,77.85
2019-02-18T06:33:14.875Z,77.12
2019-02-18T06:34:14.966Z,76.92
2019-02-18T06:35:14.865Z,76.71
2019-02-18T06:36:14.803Z,76.40
2019-02-18T06:37:14.900Z,76.43
2019-02-18T06:38:14.828Z,76.29
2019-02-18T06:39:14.868Z,75.98
2019-02-18T06:40:14.829Z,76.23
2019-02-18T06:41:14.778Z,76.12
2019-02-18T06:42:14.786Z,76.33
2019-02-18T06:43:14.763Z,76.23
2019-02-18T06:44:14.770Z,76.43
2019-02-18T06:45:14.844Z,76.54
2019-02-18T06:46:14.691Z,76.33
2019-02-18T06:47:14.757Z,76.54
2019-02-18T06:48:14.682Z,76.23
2019-02-18T06:49:14.797Z,76.54
2019-02-18T06:50:14.693Z,76.12
2019-02-18T06:51:16.974Z,76.12
2019-02-18T06:52:14.689Z,76.23
2019-02-18T06:53:15.404Z,76.33
2019-02-18T06:54:14.594Z,76.54
2019-02-18T06:55:14.628Z,76.23
2019-02-18T06:56:14.612Z,76.23
2019-02-18T06:57:14.694Z,76.23
2019-02-18T06:58:14.754Z,76.43
2019-02-18T06:59:14.597Z,76.64
2019-02-18T07:00:14.594Z,76.54
2019-02-18T07:01:14.676Z,76.95
2019-02-18T07:02:14.658Z,76.68
2019-02-18T07:03:14.529Z,76.75
2019-02-18T07:04:14.658Z,76.64
2019-02-18T07:05:14.547Z,77.16
2019-02-18T07:06:14.509Z,76.75
2019-02-18T07:07:14.625Z,76.64
2019-02-18T07:08:14.611Z,76.85
2019-02-18T07:09:14.479Z,76.54
2019-02-18T07:10:14.478Z,77.37
2019-02-18T07:11:14.423Z,76.64
2019-02-18T07:12:14.536Z,77.06
2019-02-18T07:13:14.441Z,76.95
2019-02-18T07:14:14.435Z,77.26
2019-02-18T07:15:14.427Z,77.06
2019-02-18T07:16:14.407Z,76.75
2019-02-18T07:17:14.528Z,77.06
2019-02-18T07:18:14.385Z,77.37
2019-02-18T07:19:14.468Z,77.26
2019-02-18T07:20:14.452Z,77.16
2019-02-18T07:21:14.357Z,76.95
2019-02-18T07:22:14.360Z,77.12
2019-02-18T07:23:14.486Z,76.50
2019-02-18T07:24:15.422Z,76.40
2019-02-18T07:25:14.399Z,76.71
2019-02-18T07:26:14.901Z,76.92
2019-02-18T07:27:14.291Z,76.09
2019-02-18T07:28:14.280Z,76.09
2019-02-18T07:29:14.339Z,76.71
2019-02-18T07:30:14.233Z,76.26
2019-02-18T07:31:14.411Z,75.98
2019-02-18T07:32:14.240Z,76.26
2019-02-18T07:33:14.216Z,76.26
2019-02-18T07:34:14.274Z,75.85
2019-02-18T07:35:14.221Z,76.16
2019-02-18T07:36:14.200Z,76.26
2019-02-18T07:37:14.255Z,75.81
2019-02-18T07:38:14.167Z,75.71
2019-02-18T07:39:14.159Z,76.12
2019-02-18T07:40:14.144Z,76.12
2019-02-18T07:41:14.152Z,75.92
2019-02-18T07:42:14.191Z,75.50
2019-02-18T07:43:14.096Z,75.92
2019-02-18T07:44:14.108Z,75.29
2019-02-18T07:45:14.102Z,75.67
2019-02-18T07:46:14.086Z,74.88
2019-02-18T07:47:14.904Z,74.74
2019-02-18T07:48:14.138Z,74.32
2019-02-18T07:49:14.903Z,74.22
2019-02-18T07:50:20.640Z,74.32
2019-02-18T07:51:14.971Z,74.29
2019-02-18T07:52:14.003Z,73.67
2019-02-18T07:53:14.032Z,73.57
2019-02-18T07:54:14.073Z,73.63
2019-02-18T07:55:13.987Z,73.22
2019-02-18T07:56:13.971Z,72.05
2019-02-18T07:57:13.961Z,71.94
2019-02-18T07:58:13.951Z,71.29
2019-02-18T07:59:14.019Z,71.70
2019-02-18T08:00:13.914Z,70.67
2019-02-18T08:01:13.911Z,70.12
2019-02-18T08:02:13.912Z,69.50
2019-02-18T08:03:13.995Z,69.78
2019-02-18T08:04:13.891Z,69.78
2019-02-18T08:05:13.858Z,69.37
2019-02-18T08:06:13.861Z,68.71
2019-02-18T08:07:13.853Z,68.30
2019-02-18T08:08:14.908Z,68.09
2019-02-18T08:09:13.822Z,67.03
2019-02-18T08:10:13.818Z,67.44
2019-02-18T08:11:13.776Z,66.72
2019-02-18T08:12:13.859Z,65.66
2019-02-18T08:13:13.782Z,66.48
2019-02-18T08:14:13.925Z,66.14
2019-02-18T08:15:13.768Z,65.11
2019-02-18T08:16:13.751Z,65.42
2019-02-18T08:17:13.807Z,65.11
2019-02-18T08:18:13.819Z,64.36
2019-02-18T08:19:15.606Z,64.15
2019-02-18T08:20:13.735Z,63.71
2019-02-18T08:21:13.697Z,63.50
2019-02-18T08:22:13.680Z,63.92
2019-02-18T08:23:13.672Z,63.89
2019-02-18T08:24:13.738Z,62.54
2019-02-18T08:25:13.731Z,62.65
2019-02-18T08:26:13.639Z,62.52
2019-02-18T08:27:13.629Z,62.62
2019-02-18T08:28:13.625Z,62.10
2019-02-18T08:29:13.606Z,62.21
2019-02-18T08:30:13.859Z,61.66
2019-02-18T08:31:13.680Z,61.66
2019-02-18T08:32:13.598Z,61.77
2019-02-18T08:33:13.749Z,61.87
2019-02-18T08:34:13.550Z,60.84
2019-02-18T08:35:13.541Z,61.15
2019-02-18T08:36:13.621Z,61.25
2019-02-18T08:37:13.508Z,59.89
2019-02-18T08:38:13.572Z,59.99
2019-02-18T08:39:13.533Z,60.40
2019-02-18T08:40:22.130Z,60.81
2019-02-18T08:41:14.466Z,60.17
2019-02-18T08:42:13.560Z,60.27
2019-02-18T08:43:13.449Z,59.96
2019-02-18T08:44:13.434Z,59.11
2019-02-18T08:45:13.531Z,59.52
2019-02-18T08:46:13.414Z,59.52
2019-02-18T08:47:13.407Z,59.42
2019-02-18T08:48:13.393Z,59.52
2019-02-18T08:49:13.468Z,59.63
2019-02-18T08:50:13.410Z,58.36
2019-02-18T08:51:13.347Z,58.67
2019-02-18T08:52:13.350Z,59.08
2019-02-18T08:53:13.345Z,58.57
2019-02-18T08:54:13.402Z,58.36
2019-02-18T08:55:13.316Z,57.85
2019-02-18T08:56:13.438Z,58.16
2019-02-18T08:57:13.289Z,57.64
2019-02-18T08:58:13.269Z,57.41
2019-02-18T08:59:13.363Z,57.00
2019-02-18T09:00:13.334Z,57.10
2019-02-18T09:01:13.243Z,57.28
2019-02-18T09:02:13.315Z,57.00
2019-02-18T09:03:13.206Z,56.08
2019-02-18T09:04:13.218Z,56.67
2019-02-18T09:05:13.388Z,56.46
2019-02-18T09:06:13.917Z,56.46
2019-02-18T09:07:13.192Z,56.56
2019-02-18T09:08:13.156Z,56.26
2019-02-18T09:09:13.148Z,55.92
2019-02-18T09:10:13.148Z,55.64
2019-02-18T09:11:13.137Z,55.21
2019-02-18T09:12:13.190Z,55.30
2019-02-18T09:13:13.102Z,55.92
2019-02-18T09:14:13.106Z,55.82
2019-02-18T09:15:14.335Z,55.41
2019-02-18T09:16:13.128Z,54.87
2019-02-18T09:17:13.068Z,54.87
2019-02-18T09:18:13.116Z,53.95
2019-02-18T09:19:13.159Z,54.74
2019-02-18T09:20:13.027Z,54.15
2019-02-18T09:21:13.014Z,54.25
2019-02-18T09:22:13.027Z,54.23
2019-02-18T09:23:13.098Z,53.92
2019-02-18T09:24:12.990Z,53.72
2019-02-18T09:25:12.972Z,54.02
2019-02-18T09:26:12.974Z,53.31
2019-02-18T09:27:12.947Z,52.67
2019-02-18T09:28:12.943Z,53.28
2019-02-18T09:29:13.026Z,52.77
2019-02-18T09:30:12.922Z,52.77
2019-02-18T09:31:13.532Z,52.47
2019-02-18T09:32:12.904Z,52.75
2019-02-18T09:33:12.931Z,52.34
2019-02-18T09:34:12.931Z,52.54
2019-02-18T09:35:12.866Z,52.64
2019-02-18T09:36:12.852Z,52.34
2019-02-18T09:37:12.852Z,52.62
2019-02-18T09:38:23.787Z,52.11
2019-02-18T09:39:13.889Z,52.13
2019-02-18T09:40:12.819Z,52.34
2019-02-18T09:41:12.791Z,51.59
2019-02-18T09:42:12.821Z,51.90
2019-02-18T09:43:12.869Z,51.80
2019-02-18T09:44:12.767Z,51.90
2019-02-18T09:45:14.740Z,49.73
2019-02-18T09:46:12.889Z,49.85
2019-02-18T09:47:12.732Z,50.85
2019-02-18T09:48:12.815Z,51.06
2019-02-18T09:49:12.799Z,51.67
2019-02-18T09:50:12.685Z,51.16
2019-02-18T09:51:12.787Z,51.34
2019-02-18T09:52:12.690Z,51.06
2019-02-18T09:53:12.680Z,51.37
2019-02-18T09:54:12.661Z,51.14
2019-02-18T09:55:12.627Z,50.22
2019-02-18T09:56:12.622Z,49.73
2019-02-18T09:57:12.710Z,50.01
2019-02-18T09:58:12.704Z,50.01
2019-02-18T09:59:12.567Z,49.81
2019-02-18T10:00:12.525Z,49.81
2019-02-18T10:01:12.571Z,50.20
2019-02-18T10:02:12.653Z,50.12
2019-02-18T10:03:12.540Z,49.81
2019-02-18T10:04:12.532Z,50.09
2019-02-18T10:05:12.654Z,49.99
2019-02-18T10:06:12.515Z,49.79
2019-02-18T10:07:12.516Z,49.68
2019-02-18T10:08:12.484Z,49.17
2019-02-18T10:09:12.488Z,49.15
2019-02-18T10:10:12.536Z,49.76
2019-02-18T10:11:13.429Z,49.96
2019-02-18T10:12:18.383Z,50.27
2019-02-18T10:13:13.512Z,50.27
2019-02-18T10:14:12.421Z,50.07
2019-02-18T10:15:12.454Z,50.17
2019-02-18T10:16:12.415Z,49.35
2019-02-18T10:17:12.386Z,49.25
2019-02-18T10:18:12.373Z,49.76
2019-02-18T10:19:12.635Z,49.96
2019-02-18T10:20:12.371Z,49.02
2019-02-18T10:21:12.416Z,49.54
2019-02-18T10:22:12.428Z,48.82
2019-02-18T10:23:12.320Z,48.92
2019-02-18T10:24:12.408Z,48.92
2019-02-18T10:25:12.333Z,48.41
2019-02-18T10:26:12.377Z,48.72
2019-02-18T10:27:12.284Z,48.18
2019-02-18T10:28:12.265Z,48.80
2019-02-18T10:29:12.260Z,49.10
2019-02-18T10:30:12.253Z,49.21
2019-02-18T10:31:12.239Z,48.28
2019-02-18T10:32:12.301Z,48.69
2019-02-18T10:33:12.219Z,48.77
2019-02-18T10:34:12.204Z,48.90
2019-02-18T10:35:12.310Z,48.57
2019-02-18T10:36:12.170Z,48.39
2019-02-18T10:37:12.201Z,48.16
2019-02-18T10:38:12.159Z,47.88
2019-02-18T10:39:12.134Z,47.96
2019-02-18T10:40:12.135Z,48.16
2019-02-18T10:41:12.165Z,46.94
2019-02-18T10:42:12.107Z,46.83
2019-02-18T10:43:12.107Z,47.14
2019-02-18T10:44:12.196Z,47.45
2019-02-18T10:45:12.089Z,47.24
2019-02-18T10:46:12.091Z,47.22
2019-02-18T10:47:12.046Z,47.34
2019-02-18T10:48:12.059Z,47.22
2019-02-18T10:49:19.745Z,46.81
2019-02-18T10:50:13.014Z,46.51
2019-02-18T10:51:12.015Z,46.30
2019-02-18T10:52:12.015Z,46.59
2019-02-18T10:53:11.990Z,46.92
2019-02-18T10:54:12.073Z,46.28
2019-02-18T10:55:12.000Z,46.69
2019-02-18T10:56:11.944Z,46.48
2019-02-18T10:57:11.952Z,47.20
2019-02-18T10:58:12.044Z,47.40
2019-02-18T10:59:11.927Z,47.81
2019-02-18T11:00:11.878Z,47.09
2019-02-18T11:01:11.899Z,46.36
2019-02-18T11:02:11.879Z,46.47
2019-02-18T11:03:11.853Z,46.36
2019-02-18T11:04:11.954Z,46.06
2019-02-18T11:05:11.818Z,46.15
2019-02-18T11:06:11.833Z,46.03
2019-02-18T11:07:11.823Z,46.03
2019-02-18T11:08:11.827Z,46.44
2019-02-18T11:09:11.816Z,45.63
2019-02-18T11:10:11.864Z,45.83
2019-02-18T11:11:17.077Z,45.12
2019-02-18T11:12:12.778Z,44.81
2019-02-18T11:13:11.733Z,44.81
2019-02-18T11:14:11.753Z,45.53
2019-02-18T11:15:11.841Z,45.53
2019-02-18T11:16:11.739Z,45.81
2019-02-18T11:17:11.719Z,44.81
2019-02-18T11:18:11.790Z,44.89
2019-02-18T11:19:12.443Z,45.12
2019-02-18T11:20:11.689Z,45.61
2019-02-18T11:21:11.762Z,45.71
2019-02-18T11:22:11.811Z,45.61
2019-02-18T11:23:11.634Z,45.71
2019-02-18T11:24:11.615Z,44.79
2019-02-18T11:25:11.781Z,45.20
2019-02-18T11:26:11.721Z,45.81
2019-02-18T11:27:11.595Z,45.61
2019-02-18T11:28:11.587Z,45.81
2019-02-18T11:29:11.618Z,44.57
2019-02-18T11:30:11.536Z,43.96
2019-02-18T11:31:11.675Z,44.26
2019-02-18T11:32:11.561Z,45.18
2019-02-18T11:33:11.536Z,44.97
2019-02-18T11:34:11.519Z,45.18
2019-02-18T11:35:11.493Z,43.44
2019-02-18T11:36:11.609Z,44.67
2019-02-18T11:37:13.755Z,44.16
2019-02-18T11:38:11.505Z,44.06
2019-02-18T11:39:11.517Z,44.06
2019-02-18T11:40:11.463Z,44.16
2019-02-18T11:41:11.687Z,44.97
2019-02-18T11:42:11.453Z,44.45
2019-02-18T11:43:11.533Z,44.16
2019-02-18T11:44:11.458Z,44.04
2019-02-18T11:45:11.398Z,43.44
2019-02-18T11:46:11.394Z,44.34
2019-02-18T11:47:11.384Z,43.43
2019-02-18T11:48:11.464Z,44.45
2019-02-18T11:49:11.363Z,44.95
2019-02-18T11:50:11.357Z,44.85
2019-02-18T11:51:11.332Z,44.34
2019-02-18T11:52:11.951Z,43.43
2019-02-18T11:53:11.421Z,44.04
2019-02-18T11:54:11.299Z,43.43
2019-02-18T11:55:11.308Z,44.04
2019-02-18T11:56:11.269Z,44.14
2019-02-18T11:57:11.308Z,43.23
2019-02-18T11:58:11.244Z,43.73
2019-02-18T11:59:11.353Z,43.43
2019-02-18T12:00:11.198Z,43.93
2019-02-18T12:01:11.236Z,43.53
2019-02-18T12:02:11.234Z,43.61
2019-02-18T12:03:12.691Z,44.12
2019-02-18T12:04:11.295Z,43.30
2019-02-18T12:05:11.166Z,44.12
2019-02-18T12:06:11.152Z,43.91
2019-02-18T12:07:11.149Z,43.91
2019-02-18T12:08:11.133Z,43.41
2019-02-18T12:09:11.150Z,44.02
2019-02-18T12:10:12.042Z,43.71
2019-02-18T12:11:11.352Z,43.10
2019-02-18T12:12:11.095Z,43.38
2019-02-18T12:13:11.080Z,42.77
2019-02-18T12:14:11.228Z,42.37
2019-02-18T12:15:11.038Z,43.18
2019-02-18T12:16:11.154Z,43.90
2019-02-18T12:17:20.321Z,43.38
2019-02-18T12:18:13.726Z,44.20
2019-02-18T12:19:11.016Z,43.59
2019-02-18T12:20:11.008Z,42.98
2019-02-18T12:21:11.019Z,43.49
2019-02-18T12:22:12.091Z,43.69
2019-02-18T12:23:11.062Z,42.98
2019-02-18T12:24:10.947Z,43.90
2019-02-18T12:25:11.018Z,43.59
2019-02-18T12:26:11.033Z,43.57
2019-02-18T12:27:10.935Z,43.65
2019-02-18T12:28:11.460Z,42.82
2019-02-18T12:29:10.911Z,41.88
2019-02-18T12:30:10.859Z,41.97
2019-02-18T12:31:11.549Z,40.94
2019-02-18T12:32:10.959Z,39.42
2019-02-18T12:33:10.932Z,40.14
2019-02-18T12:34:10.845Z,41.05
2019-02-18T12:35:10.821Z,41.36
2019-02-18T12:36:10.799Z,41.05
2019-02-18T12:37:10.823Z,41.05
2019-02-18T12:38:10.800Z,41.03
2019-02-18T12:39:10.844Z,40.02
2019-02-18T12:40:10.788Z,38.87
2019-02-18T12:41:10.761Z,38.23
2019-02-18T12:42:10.837Z,36.57
2019-02-18T12:43:10.747Z,35.93
2019-02-18T12:44:10.728Z,36.32
2019-02-18T12:45:10.771Z,35.17
2019-02-18T12:46:15.719Z,34.97
2019-02-18T12:47:11.817Z,34.84
2019-02-18T12:48:10.677Z,34.34
2019-02-18T12:49:10.683Z,33.92
2019-02-18T12:50:10.745Z,33.42
2019-02-18T12:51:10.661Z,33.62
2019-02-18T12:52:10.650Z,33.22